createdAt,value
2018-09-16T00:00:37.927Z,88.83
2018-09-16T00:01:38.109Z,88.07
2018-09-16T00:02:38.267Z,87.21
2018-09-16T00:03:38.408Z,87.49
2018-09-16T00:04:38.590Z,87.49
2018-09-16T00:05:38.731Z,87.40
2018-09-16T00:06:38.906Z,87.49
2018-09-16T00:07:39.088Z,87.87
2018-09-16T00:08:39.249Z,87.59
2018-09-16T00:09:39.432Z,87.97
2018-09-16T00:10:39.604Z,87.78
2018-09-16T00:11:39.786Z,87.49
2018-09-16T00:12:39.960Z,87.40
2018-09-16T00:13:40.157Z,87.30
2018-09-16T00:14:40.355Z,87.49
2018-09-16T00:15:40.475Z,87.11
2018-09-16T00:16:40.645Z,86.77
2018-09-16T00:17:40.822Z,86.58
2018-09-16T00:18:40.994Z,87.02
2018-09-16T00:19:41.151Z,87.40
2018-09-16T00:20:41.322Z,87.02
2018-09-16T00:21:41.499Z,87.11
2018-09-16T00:22:41.661Z,87.40
2018-09-16T00:23:41.820Z,86.92
2018-09-16T00:24:41.982Z,86.92
2018-09-16T00:25:42.145Z,87.49
2018-09-16T00:26:42.308Z,87.40
2018-09-16T00:27:42.482Z,87.30
2018-09-16T00:28:42.643Z,87.21
2018-09-16T00:29:42.817Z,87.64
2018-09-16T00:30:42.980Z,87.83
2018-09-16T00:31:43.147Z,88.69
2018-09-16T00:32:43.310Z,88.98
2018-09-16T00:33:43.493Z,88.78
2018-09-16T00:34:43.633Z,88.69
2018-09-16T00:35:43.811Z,88.50
2018-09-16T00:36:44.005Z,88.88
2018-09-16T00:37:44.158Z,88.40
2018-09-16T00:38:44.319Z,88.31
2018-09-16T00:39:44.528Z,88.21
2018-09-16T00:40:44.657Z,88.02
2018-09-16T00:41:44.820Z,88.88
2018-09-16T00:42:44.994Z,88.88
2018-09-16T00:43:45.168Z,89.07
2018-09-16T00:44:45.321Z,88.59
2018-09-16T00:45:45.506Z,88.78
2018-09-16T00:46:45.641Z,88.98
2018-09-16T00:47:45.811Z,88.88
2018-09-16T00:48:45.977Z,88.78
2018-09-16T00:49:46.165Z,88.69
2018-09-16T00:50:46.311Z,88.78
2018-09-16T00:51:46.497Z,88.02
2018-09-16T00:52:46.647Z,88.02
2018-09-16T00:53:46.798Z,87.93
2018-09-16T00:54:46.987Z,88.69
2018-09-16T00:55:47.142Z,88.69
2018-09-16T00:56:47.364Z,88.78
2018-09-16T00:57:47.469Z,88.50
2018-09-16T00:58:47.640Z,88.88
2018-09-16T00:59:47.801Z,88.59
2018-09-16T01:00:47.979Z,88.21
2018-09-16T01:01:48.147Z,88.98
2018-09-16T01:02:48.303Z,88.59
2018-09-16T01:03:48.475Z,88.98
2018-09-16T01:04:48.632Z,89.45
2018-09-16T01:05:48.805Z,89.26
2018-09-16T01:06:48.986Z,89.50
2018-09-16T01:07:49.403Z,89.98
2018-09-16T01:08:49.320Z,89.89
2018-09-16T01:09:49.492Z,89.89
2018-09-16T01:10:49.658Z,89.69
2018-09-16T01:11:49.808Z,89.69
2018-09-16T01:12:49.987Z,89.79
2018-09-16T01:13:50.158Z,89.69
2018-09-16T01:14:50.327Z,90.08
2018-09-16T01:15:50.499Z,90.74
2018-09-16T01:16:50.688Z,90.45
2018-09-16T01:17:50.851Z,90.93
2018-09-16T01:18:51.009Z,90.64
2018-09-16T01:19:51.176Z,90.36
2018-09-16T01:20:51.339Z,90.17
2018-09-16T01:21:51.503Z,89.79
2018-09-16T01:22:51.707Z,90.08
2018-09-16T01:23:51.839Z,90.64
2018-09-16T01:24:52.005Z,90.64
2018-09-16T01:25:52.167Z,90.64
2018-09-16T01:26:52.334Z,90.36
2018-09-16T01:27:52.514Z,90.55
2018-09-16T01:28:52.672Z,90.84
2018-09-16T01:29:52.850Z,90.64
2018-09-16T01:30:53.007Z,90.74
2018-09-16T01:31:53.193Z,90.26
2018-09-16T01:32:53.344Z,90.26
2018-09-16T01:33:53.509Z,90.55
2018-09-16T01:34:53.667Z,90.64
2018-09-16T01:35:53.834Z,90.64
2018-09-16T01:36:53.992Z,91.27
2018-09-16T01:37:54.174Z,90.89
2018-09-16T01:38:54.321Z,91.65
2018-09-16T01:39:54.483Z,91.74
2018-09-16T01:40:54.643Z,91.65
2018-09-16T01:41:54.826Z,91.74
2018-09-16T01:42:55.027Z,91.84
2018-09-16T01:43:55.154Z,91.08
2018-09-16T01:44:55.335Z,90.84
2018-09-16T01:45:55.502Z,91.08
2018-09-16T01:46:55.659Z,91.22
2018-09-16T01:47:55.839Z,90.55
2018-09-16T01:48:56.007Z,90.55
2018-09-16T01:49:56.192Z,90.08
2018-09-16T01:50:56.340Z,89.69
2018-09-16T01:51:56.525Z,89.69
2018-09-16T01:52:56.683Z,90.45
2018-09-16T01:53:56.844Z,90.55
2018-09-16T01:54:57.024Z,90.26
2018-09-16T01:55:57.220Z,90.17
2018-09-16T01:56:57.349Z,91.13
2018-09-16T01:57:57.551Z,91.69
2018-09-16T01:58:57.703Z,90.84
2018-09-16T01:59:57.853Z,91.03
2018-09-16T02:00:58.025Z,91.22
2018-09-16T02:01:58.206Z,90.17
2018-09-16T02:02:58.392Z,89.98
2018-09-16T02:03:58.546Z,89.69
2018-09-16T02:04:58.716Z,89.60
2018-09-16T02:05:58.890Z,89.50
2018-09-16T02:06:59.051Z,89.12
2018-09-16T02:07:59.228Z,89.22
2018-09-16T02:08:59.393Z,89.65
2018-09-16T02:09:59.556Z,90.03
2018-09-16T02:10:59.723Z,90.50
2018-09-16T02:11:59.899Z,90.60
2018-09-16T02:13:00.073Z,90.60
2018-09-16T02:14:00.250Z,90.79
2018-09-16T02:15:00.433Z,91.27
2018-09-16T02:16:00.594Z,90.89
2018-09-16T02:17:00.758Z,90.98
2018-09-16T02:18:00.911Z,91.65
2018-09-16T02:19:01.078Z,91.46
2018-09-16T02:20:01.224Z,91.55
2018-09-16T02:21:01.404Z,91.74
2018-09-16T02:22:01.571Z,91.89
2018-09-16T02:23:01.727Z,92.22
2018-09-16T02:24:01.905Z,92.50
2018-09-16T02:25:02.075Z,91.74
2018-09-16T02:26:02.236Z,92.41
2018-09-16T02:27:02.400Z,91.41
2018-09-16T02:28:02.580Z,91.55
2018-09-16T02:29:02.764Z,92.41
2018-09-16T02:30:02.895Z,91.84
2018-09-16T02:31:03.061Z,91.55
2018-09-16T02:32:03.222Z,92.03
2018-09-16T02:33:03.394Z,91.89
2018-09-16T02:34:03.576Z,92.18
2018-09-16T02:35:03.748Z,92.08
2018-09-16T02:36:03.899Z,92.60
2018-09-16T02:37:04.072Z,92.32
2018-09-16T02:38:04.245Z,91.65
2018-09-16T02:39:04.416Z,91.55
2018-09-16T02:40:04.591Z,91.46
2018-09-16T02:41:04.735Z,91.55
2018-09-16T02:42:04.908Z,91.55
2018-09-16T02:43:05.062Z,90.89
2018-09-16T02:44:05.233Z,91.17
2018-09-16T02:45:05.412Z,90.60
2018-09-16T02:46:05.580Z,90.31
2018-09-16T02:47:05.718Z,90.50
2018-09-16T02:48:05.892Z,90.70
2018-09-16T02:49:06.041Z,91.17
2018-09-16T02:50:06.213Z,90.89
2018-09-16T02:51:06.369Z,91.08
2018-09-16T02:52:06.526Z,91.27
2018-09-16T02:53:06.717Z,90.98
2018-09-16T02:54:06.876Z,90.98
2018-09-16T02:55:07.049Z,90.60
2018-09-16T02:56:07.224Z,90.46
2018-09-16T02:57:07.391Z,90.36
2018-09-16T02:58:07.554Z,90.56
2018-09-16T02:59:07.718Z,90.56
2018-09-16T03:00:07.883Z,90.94
2018-09-16T03:01:08.063Z,90.65
2018-09-16T03:02:08.247Z,91.51
2018-09-16T03:03:08.424Z,92.08
2018-09-16T03:04:08.589Z,91.51
2018-09-16T03:05:08.770Z,91.70
2018-09-16T03:06:08.936Z,91.31
2018-09-16T03:07:09.108Z,92.36
2018-09-16T03:08:09.292Z,91.99
2018-09-16T03:09:09.455Z,91.79
2018-09-16T03:10:09.618Z,92.18
2018-09-16T03:11:09.775Z,92.36
2018-09-16T03:12:09.945Z,92.18
2018-09-16T03:13:10.127Z,92.18
2018-09-16T03:14:10.299Z,91.89
2018-09-16T03:15:10.476Z,91.99
2018-09-16T03:16:10.646Z,91.99
2018-09-16T03:17:10.822Z,92.36
2018-09-16T03:18:10.990Z,92.18
2018-09-16T03:19:11.160Z,92.27
2018-09-16T03:20:11.333Z,92.94
2018-09-16T03:21:11.505Z,92.84
2018-09-16T03:22:11.691Z,92.84
2018-09-16T03:23:11.855Z,92.65
2018-09-16T03:24:12.023Z,92.94
2018-09-16T03:25:12.185Z,92.94
2018-09-16T03:26:12.368Z,92.74
2018-09-16T03:27:12.530Z,92.18
2018-09-16T03:28:12.691Z,92.18
2018-09-16T03:29:12.857Z,91.70
2018-09-16T03:30:13.046Z,92.27
2018-09-16T03:31:13.206Z,91.99
2018-09-16T03:32:13.388Z,91.99
2018-09-16T03:33:13.560Z,91.99
2018-09-16T03:34:13.716Z,91.60
2018-09-16T03:35:13.878Z,92.13
2018-09-16T03:36:14.037Z,92.13
2018-09-16T03:37:14.199Z,92.13
2018-09-16T03:38:14.362Z,92.89
2018-09-16T03:39:14.538Z,92.79
2018-09-16T03:40:14.716Z,92.32
2018-09-16T03:41:14.869Z,93.46
2018-09-16T03:42:15.041Z,93.94
2018-09-16T03:43:15.195Z,93.89
2018-09-16T03:44:15.364Z,93.55
2018-09-16T03:45:15.539Z,94.13
2018-09-16T03:46:15.696Z,94.22
2018-09-16T03:47:15.886Z,93.74
2018-09-16T03:48:16.072Z,93.84
2018-09-16T03:49:16.209Z,93.18
2018-09-16T03:50:16.376Z,92.60
2018-09-16T03:51:16.567Z,92.60
2018-09-16T03:52:16.726Z,92.32
2018-09-16T03:53:16.903Z,91.27
2018-09-16T03:54:17.069Z,91.56
2018-09-16T03:55:17.243Z,91.65
2018-09-16T03:56:17.393Z,91.37
2018-09-16T03:57:17.565Z,91.37
2018-09-16T03:58:17.728Z,91.37
2018-09-16T03:59:17.887Z,92.13
2018-09-16T04:00:18.073Z,91.46
2018-09-16T04:01:18.253Z,92.13
2018-09-16T04:02:18.393Z,91.37
2018-09-16T04:03:18.562Z,91.27
2018-09-16T04:04:18.727Z,91.46
2018-09-16T04:05:18.885Z,92.46
2018-09-16T04:06:19.070Z,93.13
2018-09-16T04:07:19.250Z,93.65
2018-09-16T04:08:19.428Z,93.98
2018-09-16T04:09:19.583Z,93.60
2018-09-16T04:10:19.762Z,93.55
2018-09-16T04:11:19.924Z,93.60
2018-09-16T04:12:20.100Z,93.51
2018-09-16T04:13:20.274Z,93.27
2018-09-16T04:14:20.452Z,92.99
2018-09-16T04:15:20.613Z,92.70
2018-09-16T04:16:20.786Z,92.60
2018-09-16T04:17:20.942Z,92.51
2018-09-16T04:18:21.113Z,92.75
2018-09-16T04:19:21.271Z,93.41
2018-09-16T04:20:21.443Z,93.04
2018-09-16T04:21:21.613Z,93.41
2018-09-16T04:22:21.763Z,93.04
2018-09-16T04:23:21.936Z,92.94
2018-09-16T04:24:22.113Z,93.27
2018-09-16T04:25:22.256Z,93.32
2018-09-16T04:26:22.421Z,93.32
2018-09-16T04:27:22.599Z,92.70
2018-09-16T04:28:22.764Z,92.94
2018-09-16T04:29:22.939Z,92.32
2018-09-16T04:30:23.117Z,92.84
2018-09-16T04:31:23.307Z,93.46
2018-09-16T04:32:23.488Z,92.65
2018-09-16T04:33:23.691Z,92.84
2018-09-16T04:34:23.834Z,92.27
2018-09-16T04:35:24.012Z,93.27
2018-09-16T04:36:24.179Z,93.37
2018-09-16T04:37:24.349Z,92.60
2018-09-16T04:38:24.520Z,92.79
2018-09-16T04:39:24.695Z,93.08
2018-09-16T04:40:24.871Z,92.70
2018-09-16T04:41:32.691Z,92.60
2018-09-16T04:42:25.229Z,92.60
2018-09-16T04:43:25.406Z,92.89
2018-09-16T04:44:33.233Z,92.22
2018-09-16T04:45:25.774Z,91.65
2018-09-16T04:46:25.953Z,91.75
2018-09-16T04:47:26.127Z,91.56
2018-09-16T04:48:26.306Z,91.46
2018-09-16T04:49:26.498Z,92.22
2018-09-16T04:50:26.666Z,91.84
2018-09-16T04:51:26.840Z,91.75
2018-09-16T04:52:27.019Z,91.56
2018-09-16T04:53:27.183Z,92.13
2018-09-16T04:54:27.369Z,91.56
2018-09-16T04:55:27.550Z,92.03
2018-09-16T04:56:27.732Z,91.84
2018-09-16T04:57:27.907Z,91.84
2018-09-16T04:58:28.080Z,92.03
2018-09-16T04:59:28.260Z,91.70
2018-09-16T05:00:28.434Z,92.27
2018-09-16T05:01:28.617Z,91.89
2018-09-16T05:02:28.794Z,92.08
2018-09-16T05:03:28.973Z,91.99
2018-09-16T05:04:29.144Z,91.94
2018-09-16T05:05:29.322Z,91.46
2018-09-16T05:06:29.501Z,91.56
2018-09-16T05:07:29.678Z,91.56
2018-09-16T05:08:29.853Z,91.56
2018-09-16T05:09:30.038Z,91.56
2018-09-16T05:10:30.219Z,91.37
2018-09-16T05:11:30.385Z,91.37
2018-09-16T05:12:30.564Z,91.03
2018-09-16T05:13:30.738Z,92.08
2018-09-16T05:14:30.916Z,91.75
2018-09-16T05:15:31.102Z,92.08
2018-09-16T05:16:31.273Z,92.46
2018-09-16T05:17:31.457Z,92.27
2018-09-16T05:18:31.625Z,92.84
2018-09-16T05:19:31.794Z,92.75
2018-09-16T05:20:31.980Z,92.65
2018-09-16T05:21:32.142Z,92.65
2018-09-16T05:22:32.326Z,93.41
2018-09-16T05:23:32.500Z,93.32
2018-09-16T05:24:32.671Z,92.65
2018-09-16T05:25:32.840Z,92.46
2018-09-16T05:26:33.012Z,92.46
2018-09-16T05:27:33.193Z,93.04
2018-09-16T05:28:33.364Z,92.51
2018-09-16T05:29:33.540Z,92.32
2018-09-16T05:30:33.724Z,91.27
2018-09-16T05:31:33.904Z,91.75
2018-09-16T05:32:34.082Z,91.75
2018-09-16T05:33:34.251Z,91.37
2018-09-16T05:34:34.428Z,91.37
2018-09-16T05:35:34.660Z,91.65
2018-09-16T05:36:34.735Z,91.56
2018-09-16T05:37:34.914Z,90.99
2018-09-16T05:38:35.087Z,90.80
2018-09-16T05:39:35.275Z,90.80
2018-09-16T05:40:35.435Z,91.27
2018-09-16T05:41:35.614Z,90.51
2018-09-16T05:42:35.792Z,90.46
2018-09-16T05:43:35.968Z,89.51
2018-09-16T05:44:36.146Z,89.32
2018-09-16T05:45:36.315Z,89.22
2018-09-16T05:46:36.489Z,88.84
2018-09-16T05:47:36.668Z,88.46
2018-09-16T05:48:36.846Z,87.70
2018-09-16T05:49:37.024Z,87.79
2018-09-16T05:50:37.201Z,87.74
2018-09-16T05:51:37.373Z,87.74
2018-09-16T05:52:37.585Z,87.17
2018-09-16T05:53:37.814Z,87.17
2018-09-16T05:54:37.896Z,86.41
2018-09-16T05:55:38.072Z,86.79
2018-09-16T05:56:38.245Z,86.79
2018-09-16T05:57:38.423Z,86.55
2018-09-16T05:58:38.606Z,85.12
2018-09-16T05:59:38.799Z,84.11
2018-09-16T06:00:38.974Z,83.25
2018-09-16T06:01:39.139Z,81.92
2018-09-16T06:02:39.320Z,81.73
2018-09-16T06:03:39.990Z,81.38
2018-09-16T06:04:39.752Z,80.76
2018-09-16T06:05:39.858Z,79.61
2018-09-16T06:06:40.035Z,78.75
2018-09-16T06:07:40.217Z,77.89
2018-09-16T06:08:40.392Z,77.70
2018-09-16T06:09:40.572Z,78.18
2018-09-16T06:10:40.778Z,77.99
2018-09-16T06:11:40.930Z,77.70
2018-09-16T06:12:41.099Z,77.80
2018-09-16T06:13:41.281Z,77.84
2018-09-16T06:14:41.460Z,76.31
2018-09-16T06:15:41.649Z,76.40
2018-09-16T06:16:41.822Z,76.69
2018-09-16T06:17:42.006Z,76.21
2018-09-16T06:18:42.195Z,76.50
2018-09-16T06:19:42.351Z,76.03
2018-09-16T06:20:42.524Z,75.74
2018-09-16T06:21:42.695Z,76.03
2018-09-16T06:22:42.936Z,74.82
2018-09-16T06:23:43.051Z,75.01
2018-09-16T06:24:43.233Z,73.39
2018-09-16T06:25:43.405Z,73.23
2018-09-16T06:26:43.588Z,72.66
2018-09-16T06:27:43.774Z,73.23
2018-09-16T06:28:43.939Z,73.43
2018-09-16T06:29:44.124Z,72.75
2018-09-16T06:30:44.315Z,72.28
2018-09-16T06:31:44.485Z,72.50
2018-09-16T06:32:44.667Z,71.26
2018-09-16T06:33:44.884Z,70.81
2018-09-16T06:34:45.025Z,70.72
2018-09-16T06:35:45.211Z,70.01
2018-09-16T06:36:45.385Z,70.43
2018-09-16T06:37:45.564Z,69.57
2018-09-16T06:38:45.744Z,69.92
2018-09-16T06:39:45.925Z,70.81
2018-09-16T06:40:46.102Z,70.53
2018-09-16T06:41:46.274Z,69.67
2018-09-16T06:42:46.458Z,69.03
2018-09-16T06:43:46.650Z,68.17
2018-09-16T06:44:46.826Z,68.46
2018-09-16T06:45:47.001Z,68.27
2018-09-16T06:46:47.181Z,68.27
2018-09-16T06:47:47.376Z,67.54
2018-09-16T06:48:47.541Z,67.25
2018-09-16T06:49:47.724Z,66.48
2018-09-16T06:50:47.932Z,65.52
2018-09-16T06:51:48.065Z,65.94
2018-09-16T06:52:48.250Z,64.89
2018-09-16T06:53:48.459Z,64.79
2018-09-16T06:54:48.621Z,65.71
2018-09-16T06:55:48.785Z,65.91
2018-09-16T06:56:48.982Z,66.48
2018-09-16T06:57:49.134Z,67.54
2018-09-16T06:58:49.333Z,67.69
2018-09-16T06:59:49.505Z,67.63
2018-09-16T07:00:49.813Z,67.44
2018-09-16T07:01:49.861Z,67.28
2018-09-16T07:02:50.048Z,66.13
2018-09-16T07:03:50.215Z,64.82
2018-09-16T07:04:50.401Z,64.22
2018-09-16T07:05:50.587Z,64.89
2018-09-16T07:06:50.746Z,65.23
2018-09-16T07:07:50.928Z,66.71
2018-09-16T07:08:51.133Z,65.52
2018-09-16T07:09:51.333Z,65.94
2018-09-16T07:10:51.489Z,65.84
2018-09-16T07:11:51.700Z,65.78
2018-09-16T07:12:51.956Z,64.82
2018-09-16T07:13:52.088Z,63.79
2018-09-16T07:14:52.259Z,63.70
2018-09-16T07:15:52.441Z,63.79
2018-09-16T07:16:52.649Z,63.79
2018-09-16T07:17:52.827Z,63.92
2018-09-16T07:18:52.993Z,62.93
2018-09-16T07:19:53.178Z,63.42
2018-09-16T07:20:53.382Z,63.76
2018-09-16T07:21:53.584Z,64.72
2018-09-16T07:22:53.779Z,65.36
2018-09-16T07:23:54.026Z,66.51
2018-09-16T07:24:54.135Z,66.42
2018-09-16T07:25:54.344Z,65.88
2018-09-16T07:26:54.623Z,64.85
2018-09-16T07:27:54.679Z,64.47
2018-09-16T07:28:54.841Z,63.32
2018-09-16T07:29:55.021Z,64.28
2018-09-16T07:30:55.203Z,65.23
2018-09-16T07:31:55.367Z,64.28
2018-09-16T07:32:55.551Z,63.89
2018-09-16T07:33:55.735Z,64.28
2018-09-16T07:34:55.925Z,64.28
2018-09-16T07:35:56.106Z,63.25
2018-09-16T07:36:56.277Z,62.87
2018-09-16T07:37:56.469Z,62.96
2018-09-16T07:38:56.643Z,63.06
2018-09-16T07:39:56.826Z,64.37
2018-09-16T07:40:57.010Z,64.37
2018-09-16T07:41:57.198Z,64.37
2018-09-16T07:42:57.374Z,64.59
2018-09-16T07:43:57.557Z,64.02
2018-09-16T07:44:57.730Z,63.09
2018-09-16T07:45:57.925Z,62.55
2018-09-16T07:46:58.070Z,62.81
2018-09-16T07:47:58.271Z,63.28
2018-09-16T07:48:58.491Z,62.26
2018-09-16T07:49:58.679Z,61.30
2018-09-16T07:50:58.792Z,61.20
2018-09-16T07:51:58.977Z,61.20
2018-09-16T07:52:59.274Z,60.75
2018-09-16T07:53:59.347Z,60.72
2018-09-16T07:54:59.532Z,61.30
2018-09-16T07:55:59.716Z,61.40
2018-09-16T07:56:59.888Z,62.07
2018-09-16T07:58:00.069Z,61.43
2018-09-16T07:59:00.254Z,60.75
2018-09-16T08:00:00.402Z,60.56
2018-09-16T08:01:00.606Z,60.56
2018-09-16T08:02:00.761Z,59.72
2018-09-16T08:03:00.961Z,59.63
2018-09-16T08:04:01.148Z,60.17
2018-09-16T08:05:01.334Z,60.66
2018-09-16T08:06:01.595Z,60.39
2018-09-16T08:07:01.739Z,60.30
2018-09-16T08:08:01.933Z,59.82
2018-09-16T08:09:02.115Z,59.37
2018-09-16T08:10:02.310Z,58.72
2018-09-16T08:11:02.501Z,57.95
2018-09-16T08:12:02.712Z,57.95
2018-09-16T08:13:02.886Z,57.12
2018-09-16T08:14:03.037Z,56.54
2018-09-16T08:15:03.242Z,56.70
2018-09-16T08:16:03.419Z,56.54
2018-09-16T08:17:03.589Z,56.51
2018-09-16T08:18:03.765Z,56.54
2018-09-16T08:19:04.009Z,56.70
2018-09-16T08:20:06.231Z,57.37
2018-09-16T08:21:04.618Z,57.28
2018-09-16T08:22:04.627Z,57.21
2018-09-16T08:23:04.816Z,57.28
2018-09-16T08:24:04.983Z,57.31
2018-09-16T08:25:05.167Z,56.90
2018-09-16T08:26:05.364Z,56.73
2018-09-16T08:27:05.531Z,56.82
2018-09-16T08:28:05.754Z,56.54
2018-09-16T08:29:06.598Z,56.15
2018-09-16T08:30:06.135Z,55.99
2018-09-16T08:31:06.369Z,54.69
2018-09-16T08:32:06.519Z,53.44
2018-09-16T08:33:06.727Z,52.89
2018-09-16T08:34:06.934Z,51.85
2018-09-16T08:35:07.114Z,51.46
2018-09-16T08:36:07.354Z,51.15
2018-09-16T08:37:07.534Z,51.56
2018-09-16T08:38:07.755Z,50.69
2018-09-16T08:39:07.887Z,50.52
2018-09-16T08:40:08.078Z,50.69
2018-09-16T08:41:08.277Z,50.33
2018-09-16T08:42:08.460Z,50.23
2018-09-16T08:43:08.648Z,49.95
2018-09-16T08:44:08.833Z,50.79
2018-09-16T08:45:09.040Z,50.69
2018-09-16T08:46:09.271Z,50.79
2018-09-16T08:47:09.468Z,50.81
2018-09-16T08:48:09.654Z,50.43
2018-09-16T08:49:09.839Z,49.87
2018-09-16T08:50:10.080Z,49.55
2018-09-16T08:51:10.284Z,49.22
2018-09-16T08:52:10.468Z,49.02
2018-09-16T08:53:10.641Z,49.29
2018-09-16T08:54:10.831Z,49.27
2018-09-16T08:55:11.031Z,49.65
2018-09-16T08:56:11.239Z,49.17
2018-09-16T08:57:11.455Z,49.19
2018-09-16T08:58:11.739Z,49.27
2018-09-16T08:59:11.822Z,48.54
2018-09-16T09:00:12.026Z,47.89
2018-09-16T09:01:12.232Z,46.94
2018-09-16T09:02:12.352Z,46.84
2018-09-16T09:03:12.577Z,46.56
2018-09-16T09:04:12.846Z,46.58
2018-09-16T09:05:13.000Z,45.71
2018-09-16T09:06:13.192Z,45.44
2018-09-16T09:07:13.386Z,45.64
2018-09-16T09:08:13.557Z,45.54
2018-09-16T09:09:13.779Z,45.34
2018-09-16T09:10:13.965Z,44.40
2018-09-16T09:11:14.174Z,44.03
2018-09-16T09:12:14.375Z,44.30
2018-09-16T09:13:14.582Z,44.20
2018-09-16T09:14:14.774Z,44.13
2018-09-16T09:15:14.960Z,43.93
2018-09-16T09:16:15.129Z,43.74
2018-09-16T09:17:15.317Z,43.16
2018-09-16T09:18:15.518Z,43.45
2018-09-16T09:19:15.740Z,45.03
2018-09-16T09:20:15.953Z,45.25
2018-09-16T09:21:16.124Z,44.40
2018-09-16T09:22:16.309Z,44.18
2018-09-16T09:23:16.507Z,44.47
2018-09-16T09:24:16.688Z,45.81
2018-09-16T09:25:16.873Z,45.51
2018-09-16T09:26:17.061Z,45.44
2018-09-16T09:27:17.234Z,44.59
2018-09-16T09:28:17.429Z,44.59
2018-09-16T09:29:17.608Z,44.20
2018-09-16T09:30:17.787Z,44.20
2018-09-16T09:31:18.087Z,44.59
2018-09-16T09:32:18.155Z,45.25
2018-09-16T09:33:18.386Z,44.76
2018-09-16T09:34:18.547Z,46.00
2018-09-16T09:35:18.750Z,46.29
2018-09-16T09:36:18.934Z,45.56
2018-09-16T09:37:19.135Z,44.32
2018-09-16T09:38:19.298Z,43.54
2018-09-16T09:39:19.491Z,45.51
2018-09-16T09:40:19.680Z,45.42
2018-09-16T09:41:19.884Z,46.75
2018-09-16T09:42:20.065Z,46.19
2018-09-16T09:43:20.269Z,46.58
2018-09-16T09:44:20.462Z,45.44
2018-09-16T09:45:20.661Z,46.84
2018-09-16T09:46:20.835Z,46.87
2018-09-16T09:47:21.034Z,46.41
2018-09-16T09:48:21.220Z,45.32
2018-09-16T09:49:21.416Z,45.54
2018-09-16T09:50:21.636Z,44.59
2018-09-16T09:51:21.822Z,43.52
2018-09-16T09:52:22.006Z,43.74
2018-09-16T09:53:22.264Z,42.30
2018-09-16T09:54:22.441Z,41.45
2018-09-16T09:55:22.586Z,41.43
2018-09-16T09:56:22.763Z,42.55
2018-09-16T09:57:23.047Z,42.38
2018-09-16T09:58:23.101Z,42.21
2018-09-16T09:59:23.384Z,42.86
2018-09-16T10:00:23.486Z,42.46
2018-09-16T10:01:23.692Z,42.65
2018-09-16T10:02:23.899Z,42.48
2018-09-16T10:03:24.086Z,41.06
2018-09-16T10:04:24.291Z,40.58
2018-09-16T10:05:24.476Z,40.41
2018-09-16T10:06:24.667Z,39.34
2018-09-16T10:07:24.889Z,38.77
2018-09-16T10:08:25.106Z,38.75
2018-09-16T10:09:25.326Z,38.48
2018-09-16T10:10:25.475Z,37.34
2018-09-16T10:11:25.659Z,37.80
2018-09-16T10:12:25.824Z,37.70
2018-09-16T10:13:26.026Z,38.95
2018-09-16T10:14:26.277Z,38.85
2018-09-16T10:15:26.444Z,38.93
2018-09-16T10:16:26.637Z,38.95
2018-09-16T10:17:26.816Z,38.83
2018-09-16T10:18:27.031Z,38.17
2018-09-16T10:19:27.215Z,37.90
2018-09-16T10:20:27.419Z,37.43
2018-09-16T10:21:27.595Z,36.67
2018-09-16T10:22:27.769Z,36.46
2018-09-16T10:23:27.945Z,36.18
2018-09-16T10:24:28.193Z,35.88
2018-09-16T10:25:28.323Z,36.36
2018-09-16T10:26:28.525Z,36.63
2018-09-16T10:27:28.707Z,37.41
2018-09-16T10:28:28.937Z,37.39
2018-09-16T10:29:29.110Z,37.22
2018-09-16T10:30:29.321Z,37.24
2018-09-16T10:31:29.531Z,36.75
2018-09-16T10:32:29.701Z,36.77
2018-09-16T10:33:29.876Z,36.18
2018-09-16T10:34:30.068Z,35.71
2018-09-16T10:35:30.238Z,35.61
2018-09-16T10:36:30.449Z,35.71
2018-09-16T10:37:30.643Z,34.94
2018-09-16T10:38:30.980Z,35.13
2018-09-16T10:39:31.010Z,35.05
2018-09-16T10:40:31.254Z,34.47
2018-09-16T10:41:31.458Z,34.84
2018-09-16T10:42:31.661Z,34.66
2018-09-16T10:43:31.862Z,34.17
2018-09-16T10:44:32.079Z,33.70
2018-09-16T10:45:32.288Z,33.51
2018-09-16T10:46:32.481Z,33.02
2018-09-16T10:47:32.687Z,33.41
2018-09-16T10:48:32.863Z,33.51
2018-09-16T10:49:33.080Z,33.22
2018-09-16T10:50:33.279Z,32.73
2018-09-16T10:51:33.445Z,32.43
2018-09-16T10:52:33.673Z,32.63
2018-09-16T10:53:33.874Z,33.29
2018-09-16T10:54:34.061Z,32.32
2018-09-16T10:55:34.299Z,33.38
2018-09-16T10:56:34.460Z,33.77
2018-09-16T10:57:34.644Z,34.63
2018-09-16T10:58:34.827Z,33.93
2018-09-16T10:59:35.068Z,35.78
2018-09-16T11:00:35.276Z,35.97
2018-09-16T11:01:35.500Z,35.68
2018-09-16T11:02:35.670Z,35.06
2018-09-16T11:03:35.852Z,36.40
2018-09-16T11:04:36.038Z,35.86
2018-09-16T11:05:36.270Z,34.59
2018-09-16T11:06:36.437Z,34.88
2018-09-16T11:07:36.731Z,34.61
2018-09-16T11:08:36.833Z,33.83
2018-09-16T11:09:37.095Z,34.98
2018-09-16T11:10:37.304Z,34.67
2018-09-16T11:11:37.474Z,35.71
2018-09-16T11:12:37.702Z,36.66
2018-09-16T11:13:37.904Z,36.68
2018-09-16T11:14:38.109Z,36.83
2018-09-16T11:15:38.323Z,36.93
2018-09-16T11:16:38.521Z,36.83
2018-09-16T11:17:38.746Z,37.51
2018-09-16T11:18:38.909Z,37.88
2018-09-16T11:19:39.124Z,37.79
2018-09-16T11:20:39.329Z,38.46
2018-09-16T11:21:39.552Z,38.53
2018-09-16T11:22:39.778Z,39.22
2018-09-16T11:23:40.015Z,40.25
2018-09-16T11:24:40.230Z,40.26
2018-09-16T11:25:40.418Z,39.61
2018-09-16T11:26:40.641Z,38.56
2018-09-16T11:27:40.801Z,38.27
2018-09-16T11:28:40.979Z,37.51
2018-09-16T11:29:41.202Z,37.81
2018-09-16T11:30:41.384Z,37.23
2018-09-16T11:31:41.930Z,36.83
2018-09-16T11:32:41.748Z,36.36
2018-09-16T11:33:41.929Z,37.32
2018-09-16T11:34:42.101Z,36.27
2018-09-16T11:35:42.303Z,36.08
2018-09-16T11:36:42.464Z,36.35
2018-09-16T11:37:42.677Z,36.25
2018-09-16T11:38:42.866Z,36.36
2018-09-16T11:39:43.058Z,36.66
2018-09-16T11:40:43.208Z,36.93
2018-09-16T11:41:43.448Z,37.32
2018-09-16T11:42:43.663Z,37.23
2018-09-16T11:43:43.840Z,36.93
2018-09-16T11:44:44.019Z,36.44
2018-09-16T11:45:44.208Z,36.16
2018-09-16T11:46:44.401Z,36.06
2018-09-16T11:47:44.574Z,36.54
2018-09-16T11:48:44.799Z,36.64
2018-09-16T11:49:44.945Z,36.74
2018-09-16T11:50:45.130Z,36.83
2018-09-16T11:51:45.384Z,37.03
2018-09-16T11:52:45.481Z,37.59
2018-09-16T11:53:45.674Z,37.21
2018-09-16T11:54:45.894Z,37.71
2018-09-16T11:55:46.080Z,36.93
2018-09-16T11:56:46.288Z,36.54
2018-09-16T11:57:46.472Z,36.25
2018-09-16T11:58:46.655Z,36.72
2018-09-16T11:59:46.863Z,37.40
2018-09-16T12:00:47.059Z,37.30
2018-09-16T12:01:47.265Z,37.49
2018-09-16T12:02:47.440Z,37.03
2018-09-16T12:03:47.630Z,36.91
2018-09-16T12:04:47.849Z,37.01
2018-09-16T12:05:48.020Z,37.69
2018-09-16T12:06:48.196Z,37.21
2018-09-16T12:07:48.408Z,37.21
2018-09-16T12:08:48.601Z,36.62
2018-09-16T12:09:48.844Z,36.52
2018-09-16T12:10:48.979Z,36.44
2018-09-16T12:11:49.146Z,36.44
2018-09-16T12:12:49.458Z,36.43
2018-09-16T12:13:49.536Z,36.52
2018-09-16T12:14:49.725Z,36.24
2018-09-16T12:15:49.898Z,36.14
2018-09-16T12:16:50.104Z,36.43
2018-09-16T12:17:50.252Z,36.44
2018-09-16T12:18:50.473Z,36.44
2018-09-16T12:19:50.648Z,36.44
2018-09-16T12:20:50.881Z,36.35
2018-09-16T12:21:51.073Z,36.06
2018-09-16T12:22:51.258Z,36.24
2018-09-16T12:23:51.433Z,36.14
2018-09-16T12:24:51.647Z,36.43
2018-09-16T12:25:51.811Z,36.25
2018-09-16T12:26:52.004Z,36.35
2018-09-16T12:27:52.164Z,35.96
2018-09-16T12:28:52.363Z,35.57
2018-09-16T12:29:52.550Z,35.57
2018-09-16T12:30:52.780Z,35.38
2018-09-16T12:31:52.959Z,35.67
2018-09-16T12:32:53.111Z,35.57
2018-09-16T12:33:53.326Z,35.28
2018-09-16T12:34:53.511Z,35.86
2018-09-16T12:35:53.720Z,34.99
2018-09-16T12:36:53.930Z,35.09
2018-09-16T12:37:54.102Z,35.77
2018-09-16T12:38:54.323Z,35.46
2018-09-16T12:39:54.527Z,35.85
2018-09-16T12:40:54.699Z,34.70
2018-09-16T12:41:54.934Z,34.80
2018-09-16T12:42:55.079Z,35.17
2018-09-16T12:43:55.276Z,34.89
2018-09-16T12:44:55.453Z,35.19
2018-09-16T12:45:55.632Z,34.89
2018-09-16T12:46:55.819Z,34.31
2018-09-16T12:47:56.061Z,34.80
2018-09-16T12:48:56.227Z,34.88
2018-09-16T12:49:56.390Z,34.88
2018-09-16T12:50:56.585Z,35.28
2018-09-16T12:51:56.793Z,34.99
2018-09-16T12:52:56.998Z,35.09
2018-09-16T12:53:57.174Z,34.89
2018-09-16T12:54:57.382Z,35.19